Time;durP1;ratioP1;P1;durP2;ratioP2;P2;SDS_P1;SDS_P2;PMS_P1;PMS_P2;Temp;Humidity;BMP_temperature;BMP_pressure;BME280_temperature;BME280_humidity;BME280_pressure;Samples;Min_cycle;Max_cycle;Signal;HPM_P1;HPM_P2
2022/06/26 00:01:43;;;;;;;;;;;;;;;21.97;48.42;100767.41;7282174;19;152321;-78
2022/06/26 00:04:10;;;;;;;;;;;;;;;21.95;48.79;100772.50;7278900;19;153890;-78
2022/06/26 00:06:38;;;;;;;;;;;;;;;22.03;48.45;100766.94;7291386;19;153834;-78
2022/06/26 00:09:05;;;;;;;;;;;;;;;22.03;48.47;100768.94;7282267;19;152345;-78
2022/06/26 00:11:32;;;;;;;;;;;;;;;21.97;48.93;100768.25;7283910;19;153979;-79
2022/06/26 00:14:07;;;;;;;;;;;;;;;21.98;48.62;100761.47;7285231;19;153035;-78
2022/06/26 00:16:34;;;;;;;;;;;;;;;21.92;49.10;100764.69;7281307;19;152693;-78
2022/06/26 00:19:01;;;;;;;;;;;;;;;21.95;49.01;100769.69;7281794;19;153557;-78
2022/06/26 00:21:27;;;;;;;;;;;;;;;21.97;48.73;100768.25;7280938;19;152662;-78
2022/06/26 00:23:54;;;;;;;;;;;;;;;22.00;48.83;100769.56;7279782;19;153027;-78
2022/06/26 00:26:21;;;;;;;;;;;;;;;21.99;49.06;100777.16;7282868;19;154376;-78
2022/06/26 00:28:48;;;;;;;;;;;;;;;22.00;48.87;100780.81;7292558;19;152355;-79
2022/06/26 00:31:14;;;;;;;;;;;;;;;21.94;49.09;100776.50;7280602;19;152934;-79
2022/06/26 00:33:41;;;;;;;;;;;;;;;21.92;49.32;100787.19;7282390;19;152776;-79
2022/06/26 00:36:08;;;;;;;;;;;;;;;21.94;49.07;100776.50;7284157;19;153618;-78
2022/06/26 00:38:35;;;;;;;;;;;;;;;21.86;49.72;100782.84;7280053;19;154008;-78
2022/06/26 00:41:02;;;;;;;;;;;;;;;21.85;49.27;100784.03;7280188;19;152152;-78
2022/06/26 00:43:29;;;;;;;;;;;;;;;21.85;49.61;100781.22;7281611;19;152191;-78
2022/06/26 00:45:56;;;;;;;;;;;;;;;21.91;49.19;100786.38;7280693;19;155088;-79
2022/06/26 00:48:23;;;;;;;;;;;;;;;21.96;49.19;100783.44;7282269;19;151942;-78
2022/06/26 00:50:51;;;;;;;;;;;;;;;21.95;49.24;100786.56;7289262;19;154885;-78
2022/06/26 00:53:18;;;;;;;;;;;;;;;21.96;49.43;100789.06;7281197;19;151688;-78
2022/06/26 00:55:45;;;;;;;;;;;;;;;21.98;49.29;100791.59;7284057;19;152354;-79
2022/06/26 00:58:12;;;;;;;;;;;;;;;22.00;49.40;100790.09;7278825;19;152772;-78
2022/06/26 01:00:39;;;;;;;;;;;;;;;21.98;49.47;100786.78;7282115;19;152391;-79
2022/06/26 01:03:06;;;;;;;;;;;;;;;22.01;49.48;100785.28;7279557;19;152664;-78
2022/06/26 01:05:33;;;;;;;;;;;;;;;21.99;49.70;100787.59;7275724;19;158439;-78
2022/06/26 01:08:00;;;;;;;;;;;;;;;22.00;49.54;100794.88;7284015;19;152155;-78
2022/06/26 01:10:28;;;;;;;;;;;;;;;21.96;49.63;100782.63;7280800;19;153674;-78
2022/06/26 01:12:55;;;;;;;;;;;;;;;21.99;49.19;100788.41;7288132;19;154072;-78
2022/06/26 01:15:22;;;;;;;;;;;;;;;21.98;49.53;100791.59;7280144;19;156018;-79
2022/06/26 01:17:48;;;;;;;;;;;;;;;21.99;49.58;100796.03;7278256;19;153115;-78
2022/06/26 01:20:15;;;;;;;;;;;;;;;21.98;49.41;100789.59;7281226;19;152192;-78
2022/06/26 01:22:42;;;;;;;;;;;;;;;21.97;49.36;100796.38;7281419;19;152491;-77
2022/06/26 01:25:08;;;;;;;;;;;;;;;21.96;49.49;100796.69;7279595;19;153890;-78
2022/06/26 01:27:39;;;;;;;;;;;;;;;21.97;49.67;100793.56;7283966;19;152864;-78
2022/06/26 01:30:06;;;;;;;;;;;;;;;21.94;49.70;100790.56;7282687;19;154819;-78
2022/06/26 01:32:33;;;;;;;;;;;;;;;21.96;49.50;100791.88;7285296;19;154474;-78
2022/06/26 01:35:00;;;;;;;;;;;;;;;21.96;49.61;100788.25;7280904;19;153003;-78
2022/06/26 01:37:27;;;;;;;;;;;;;;;21.97;49.94;100795.53;7280921;19;154100;-78
2022/06/26 01:39:54;;;;;;;;;;;;;;;21.95;49.33;100807.09;7277205;19;151970;-78
2022/06/26 01:42:20;;;;;;;;;;;;;;;21.96;49.87;100796.69;7282916;19;152691;-79
2022/06/26 01:44:47;;;;;;;;;;;;;;;21.94;49.88;100801.81;7275716;19;154144;-78
2022/06/26 01:47:14;;;;;;;;;;;;;;;21.94;49.61;100793.38;7282630;19;151983;-79
2022/06/26 01:49:41;;;;;;;;;;;;;;;21.96;49.73;100802.31;7277201;19;152988;-78
2022/06/26 01:52:08;;;;;;;;;;;;;;;21.96;49.35;100802.31;7278523;19;154101;-80
2022/06/26 01:54:35;;;;;;;;;;;;;;;21.95;49.31;100800.66;7287347;19;159846;-79
2022/06/26 01:57:01;;;;;;;;;;;;;;;21.92;49.93;100799.28;7280941;19;153910;-79
2022/06/26 01:59:28;;;;;;;;;;;;;;;21.92;49.69;100799.28;7276158;19;152311;-79
2022/06/26 02:01:55;;;;;;;;;;;;;;;21.93;49.96;100794.53;7279830;19;151818;-79
2022/06/26 02:04:21;;;;;;;;;;;;;;;21.94;49.74;100804.63;7271309;19;152701;-79
2022/06/26 02:06:48;;;;;;;;;;;;;;;21.92;49.78;100788.03;7281636;19;152015;-79
2022/06/26 02:14:45;;;;;;;;;;;;;;;21.92;49.70;100792.81;7278227;19;154144;-79
2022/06/26 02:17:12;;;;;;;;;;;;;;;21.90;49.98;100789.50;7284256;19;152533;-79
2022/06/26 02:19:39;;;;;;;;;;;;;;;21.88;49.97;100789.00;7275468;19;152127;-79
2022/06/26 02:22:06;;;;;;;;;;;;;;;21.90;50.09;100795.13;7282395;19;153732;-79
2022/06/26 02:24:32;;;;;;;;;;;;;;;21.88;50.31;100795.47;7275208;19;153626;-79
2022/06/26 02:26:59;;;;;;;;;;;;;;;21.91;49.70;100797.63;7282106;19;157392;-79
2022/06/26 02:29:26;;;;;;;;;;;;;;;21.92;50.20;100801.25;7280815;19;153241;-79
2022/06/26 02:31:52;;;;;;;;;;;;;;;21.92;50.13;100804.06;7278992;19;155754;-79
2022/06/26 02:34:19;;;;;;;;;;;;;;;21.85;49.90;100798.09;7275907;19;152161;-79
2022/06/26 02:36:46;;;;;;;;;;;;;;;21.87;50.31;100796.59;7278454;19;153446;-79
2022/06/26 02:39:12;;;;;;;;;;;;;;;21.86;50.28;100788.47;7287634;19;152732;-79
2022/06/26 02:41:39;;;;;;;;;;;;;;;21.80;50.47;100799.06;7277471;19;153485;-79
2022/06/26 02:44:06;;;;;;;;;;;;;;;21.86;50.18;100794.94;7275436;19;153810;-79
2022/06/26 02:46:33;;;;;;;;;;;;;;;21.82;50.14;100795.91;7277329;19;152461;-78
2022/06/26 02:49:00;;;;;;;;;;;;;;;21.80;50.22;100798.22;7277162;19;153013;-79
2022/06/26 02:51:26;;;;;;;;;;;;;;;21.85;50.56;100793.25;7277119;19;155233;-79
2022/06/26 02:53:53;;;;;;;;;;;;;;;21.88;50.64;100800.25;7278375;19;152017;-79
2022/06/26 02:56:20;;;;;;;;;;;;;;;21.83;50.44;100806.00;7276604;19;152868;-79
2022/06/26 02:58:47;;;;;;;;;;;;;;;21.82;50.46;100796.72;7279225;19;155948;-79
2022/06/26 03:01:13;;;;;;;;;;;;;;;21.81;50.66;100797.88;7286752;19;151775;-79
2022/06/26 03:03:40;;;;;;;;;;;;;;;21.83;50.83;100797.56;7275731;19;153540;-79
2022/06/26 03:06:07;;;;;;;;;;;;;;;21.82;50.28;100795.91;7274913;19;153313;-79
2022/06/26 03:08:33;;;;;;;;;;;;;;;21.80;50.66;100801.88;7281716;19;152631;-78
2022/06/26 03:11:00;;;;;;;;;;;;;;;21.90;50.41;100809.19;7276049;19;155815;-79
2022/06/26 03:13:30;;;;;;;;;;;;;;;21.85;50.57;100810.13;7274246;19;152657;-79
2022/06/26 03:15:56;;;;;;;;;;;;;;;21.81;50.44;100800.69;7278214;19;152072;-79
2022/06/26 03:18:23;;;;;;;;;;;;;;;21.84;50.46;100807.66;7281839;19;154819;-79
2022/06/26 03:20:50;;;;;;;;;;;;;;;21.88;50.52;100811.50;7282688;19;151989;-78
2022/06/26 03:23:17;;;;;;;;;;;;;;;21.87;50.62;100805.03;7289379;19;153051;-79
2022/06/26 03:25:44;;;;;;;;;;;;;;;21.86;50.86;100810.97;7284554;19;152299;-79
2022/06/26 03:28:10;;;;;;;;;;;;;;;21.91;50.65;100811.69;7285672;19;152201;-79
2022/06/26 03:30:37;;;;;;;;;;;;;;;21.85;51.08;100815.75;7282769;19;153222;-79
2022/06/26 03:33:04;;;;;;;;;;;;;;;21.86;50.90;100823.06;7283113;19;151832;-79
2022/06/26 03:35:30;;;;;;;;;;;;;;;21.87;50.62;100821.09;7282116;19;152683;-79
2022/06/26 03:37:57;;;;;;;;;;;;;;;21.90;50.65;100820.44;7282256;19;154108;-79
2022/06/26 03:40:24;;;;;;;;;;;;;;;21.92;50.60;100818.97;7283647;19;152255;-79
2022/06/26 03:42:50;;;;;;;;;;;;;;;21.88;51.05;100825.56;7290664;19;154399;-79
2022/06/26 03:45:17;;;;;;;;;;;;;;;21.88;50.70;100823.59;7278496;19;152680;-80
2022/06/26 03:47:44;;;;;;;;;;;;;;;21.87;50.85;100830.34;7280786;19;153825;-79
2022/06/26 03:50:11;;;;;;;;;;;;;;;21.93;50.56;100828.28;7281047;19;153502;-80
2022/06/26 03:52:43;;;;;;;;;;;;;;;21.92;50.95;100837.84;7284763;19;152021;-80
2022/06/26 03:55:10;;;;;;;;;;;;;;;21.91;50.88;100837.00;7284036;19;153738;-79
2022/06/26 03:57:37;;;;;;;;;;;;;;;21.93;50.65;100822.66;7283215;19;154323;-80
2022/06/26 04:00:04;;;;;;;;;;;;;;;21.89;50.97;100830.88;7284942;19;152496;-80
2022/06/26 04:02:31;;;;;;;;;;;;;;;21.86;50.93;100828.69;7280668;19;153851;-79
2022/06/26 04:04:58;;;;;;;;;;;;;;;21.86;50.70;100831.50;7287175;19;156968;-79
2022/06/26 04:07:24;;;;;;;;;;;;;;;21.80;51.18;100843.22;7282910;19;152301;-79
2022/06/26 04:09:51;;;;;;;;;;;;;;;21.79;50.70;100845.19;7282036;19;153236;-79
2022/06/26 04:12:18;;;;;;;;;;;;;;;21.84;51.23;100849.84;7284387;19;152446;-79
2022/06/26 04:14:46;;;;;;;;;;;;;;;21.84;51.12;100849.84;7279008;19;154229;-79
2022/06/26 04:17:14;;;;;;;;;;;;;;;21.84;50.99;100853.50;7281673;19;153672;-79
2022/06/26 04:19:49;;;;;;;;;;;;;;;21.85;50.85;100852.34;7282696;19;153090;-79
2022/06/26 04:22:15;;;;;;;;;;;;;;;21.88;50.76;100859.31;7283931;19;153520;-79
2022/06/26 04:24:42;;;;;;;;;;;;;;;21.86;51.31;100856.81;7277996;19;153193;-78
2022/06/26 04:27:09;;;;;;;;;;;;;;;21.88;50.75;100850.88;7289101;19;152245;-78
2022/06/26 04:29:36;;;;;;;;;;;;;;;21.86;50.90;100861.59;7281007;19;153317;-78
2022/06/26 04:32:02;;;;;;;;;;;;;;;21.86;50.99;100862.44;7280458;19;152281;-78
2022/06/26 04:34:29;;;;;;;;;;;;;;;21.89;51.26;100864.63;7281603;19;155747;-78
2022/06/26 04:36:56;;;;;;;;;;;;;;;21.86;51.07;100865.25;7282432;19;153603;-78
2022/06/26 04:39:22;;;;;;;;;;;;;;;21.89;51.23;100861.00;7283959;19;152125;-78
2022/06/26 04:41:49;;;;;;;;;;;;;;;21.89;51.28;100861.81;7281436;19;153226;-78
2022/06/26 04:44:18;;;;;;;;;;;;;;;21.91;51.33;100869.91;7279119;19;153768;-78
2022/06/26 04:46:46;;;;;;;;;;;;;;;21.88;51.67;100865.78;7282861;19;152618;-78
2022/06/26 04:49:13;;;;;;;;;;;;;;;21.90;51.34;100871.06;7286876;19;153176;-78
2022/06/26 04:51:42;;;;;;;;;;;;;;;21.87;51.40;100858.47;7280170;19;152593;-79
2022/06/26 04:54:09;;;;;;;;;;;;;;;21.85;51.98;100865.59;7281647;19;152819;-78
2022/06/26 04:56:43;;;;;;;;;;;;;;;21.82;51.78;100861.41;7282285;19;155417;-78
2022/06/26 04:59:10;;;;;;;;;;;;;;;21.79;51.86;100864.03;7280200;19;152432;-78
2022/06/26 05:01:36;;;;;;;;;;;;;;;21.77;52.52;100864.34;7283264;19;152269;-77
2022/06/26 05:04:03;;;;;;;;;;;;;;;21.79;52.18;100873.31;7275944;19;153947;-79
2022/06/26 05:06:30;;;;;;;;;;;;;;;21.77;52.12;100860.72;7280375;19;152154;-78
2022/06/26 05:08:57;;;;;;;;;;;;;;;21.83;52.23;100867.88;7282767;19;152102;-78
2022/06/26 05:11:24;;;;;;;;;;;;;;;21.81;51.92;100859.75;7286460;19;155297;-78
2022/06/26 05:13:50;;;;;;;;;;;;;;;21.84;52.02;100864.75;7284136;19;152526;-79
2022/06/26 05:16:17;;;;;;;;;;;;;;;21.85;52.00;100865.59;7278050;19;153249;-79
2022/06/26 05:18:44;;;;;;;;;;;;;;;21.84;52.02;100863.94;7279517;19;152181;-79
2022/06/26 05:21:10;;;;;;;;;;;;;;;21.83;52.25;100870.69;7281141;19;153513;-78
2022/06/26 05:23:37;;;;;;;;;;;;;;;21.79;52.10;100875.31;7280151;19;152678;-78
2022/06/26 05:26:04;;;;;;;;;;;;;;;21.82;52.08;100878.28;7282187;19;152368;-78
2022/06/26 05:28:31;;;;;;;;;;;;;;;21.84;51.78;100881.63;7280653;19;152979;-78
2022/06/26 05:30:57;;;;;;;;;;;;;;;21.84;51.72;100880.81;7279276;19;153206;-78
2022/06/26 05:33:24;;;;;;;;;;;;;;;21.86;51.51;100878.47;7286476;19;152145;-79
2022/06/26 05:35:51;;;;;;;;;;;;;;;21.88;51.34;100887.44;7275449;19;153613;-78
2022/06/26 05:38:17;;;;;;;;;;;;;;;21.84;51.91;100883.63;7280636;19;151590;-79
2022/06/26 05:40:44;;;;;;;;;;;;;;;21.83;51.57;100882.78;7279194;19;152055;-78
2022/06/26 05:43:11;;;;;;;;;;;;;;;21.86;51.28;100884.09;7279676;19;153211;-78
2022/06/26 05:45:38;;;;;;;;;;;;;;;21.91;51.55;100884.00;7278628;19;153752;-78
2022/06/26 05:48:06;;;;;;;;;;;;;;;21.91;51.36;100889.59;7278293;19;152175;-78
2022/06/26 05:50:33;;;;;;;;;;;;;;;21.88;51.61;100885.47;7280379;19;152554;-79
2022/06/26 05:53:00;;;;;;;;;;;;;;;21.89;51.33;100881.50;7286170;19;152361;-78
2022/06/26 05:55:27;;;;;;;;;;;;;;;21.83;51.26;100890.38;7279782;19;152511;-78
2022/06/26 05:57:54;;;;;;;;;;;;;;;21.82;51.68;100897.97;7280119;19;152283;-78
2022/06/26 06:00:21;;;;;;;;;;;;;;;21.86;51.61;100895.34;7282008;19;153120;-78
2022/06/26 06:02:47;;;;;;;;;;;;;;;21.85;51.00;100888.91;7277414;19;152224;-78
2022/06/26 06:05:14;;;;;;;;;;;;;;;21.83;51.43;100887.56;7277267;19;152616;-78
2022/06/26 06:07:41;;;;;;;;;;;;;;;21.86;51.08;100895.34;7281532;19;154771;-79
2022/06/26 06:10:09;;;;;;;;;;;;;;;21.86;51.61;100895.34;7276094;19;154248;-79
2022/06/26 06:12:36;;;;;;;;;;;;;;;21.86;51.53;100898.19;7280169;19;153107;-78
2022/06/26 06:15:03;;;;;;;;;;;;;;;21.90;51.00;100902.00;7287081;19;153324;-78
2022/06/26 06:17:35;;;;;;;;;;;;;;;21.91;51.31;100907.31;7278646;19;152367;-78
2022/06/26 06:20:05;;;;;;;;;;;;;;;21.84;51.14;100912.56;7279734;19;152695;-78
2022/06/26 06:22:32;;;;;;;;;;;;;;;21.83;51.34;100912.88;7280027;19;153275;-78
2022/06/26 06:24:59;;;;;;;;;;;;;;;21.83;51.21;100912.88;7276718;19;157246;-78
2022/06/26 06:27:34;;;;;;;;;;;;;;;21.83;51.47;100915.69;7279801;19;155624;-78
2022/06/26 06:30:01;;;;;;;;;;;;;;;21.79;50.99;100911.84;7279134;19;153997;-78
2022/06/26 06:32:28;;;;;;;;;;;;;;;21.76;51.22;100904.88;7277012;19;152231;-77
2022/06/26 06:34:54;;;;;;;;;;;;;;;21.79;51.49;100917.47;7278847;19;155525;-77
2022/06/26 06:37:21;;;;;;;;;;;;;;;21.77;51.60;100911.34;7287483;19;152715;-78
2022/06/26 06:39:48;;;;;;;;;;;;;;;21.79;51.52;100917.47;7278921;19;153425;-78
2022/06/26 06:42:15;;;;;;;;;;;;;;;21.79;51.18;100909.03;7278823;19;153878;-78
2022/06/26 06:44:42;;;;;;;;;;;;;;;21.79;51.22;100912.69;7278276;19;152419;-78
2022/06/26 06:47:08;;;;;;;;;;;;;;;21.80;50.82;100907.91;7276376;19;153580;-78
2022/06/26 06:49:37;;;;;;;;;;;;;;;21.78;51.31;100913.00;7273500;19;153867;-79
2022/06/26 06:52:04;;;;;;;;;;;;;;;21.78;51.27;100915.81;7281463;19;152644;-79
2022/06/26 06:54:32;;;;;;;;;;;;;;;21.81;50.66;100906.72;7283277;19;154766;-79
2022/06/26 06:56:58;;;;;;;;;;;;;;;21.82;50.74;100912.06;7286842;19;153526;-78
2022/06/26 06:59:25;;;;;;;;;;;;;;;21.80;51.19;100911.56;7291620;19;151812;-78
2022/06/26 07:01:52;;;;;;;;;;;;;;;21.77;51.36;100926.22;7283814;19;154323;-79
2022/06/26 07:04:19;;;;;;;;;;;;;;;21.79;50.55;100920.31;7281566;19;152763;-79
2022/06/26 07:06:46;;;;;;;;;;;;;;;21.78;50.40;100925.09;7285618;19;154623;-78
2022/06/26 07:09:13;;;;;;;;;;;;;;;21.76;50.91;100918.94;7285285;19;152604;-78
2022/06/26 07:11:40;;;;;;;;;;;;;;;21.76;50.65;100918.13;7287475;19;152163;-78
2022/06/26 07:14:07;;;;;;;;;;;;;;;21.78;50.78;100924.25;7284515;19;153312;-78
2022/06/26 07:16:33;;;;;;;;;;;;;;;21.75;51.03;100922.91;7283951;19;153972;-78
2022/06/26 07:19:00;;;;;;;;;;;;;;;21.79;50.67;100928.75;7282897;19;152300;-79
2022/06/26 07:21:27;;;;;;;;;;;;;;;21.77;50.29;100925.41;7290206;19;154267;-79
2022/06/26 07:23:54;;;;;;;;;;;;;;;21.70;51.07;100939.91;7284509;19;152022;-80
2022/06/26 07:26:20;;;;;;;;;;;;;;;21.72;50.51;100932.81;7281848;19;153589;-79
2022/06/26 07:28:47;;;;;;;;;;;;;;;21.70;50.59;100935.13;7284077;19;154062;-79
2022/06/26 07:31:14;;;;;;;;;;;;;;;21.70;50.74;100939.91;7285476;19;152327;-79
2022/06/26 07:36:26;;;;;;;;;;;;;;;21.74;49.90;100949.38;7284153;19;155340;-79
2022/06/26 07:38:54;;;;;;;;;;;;;;;21.73;50.24;100940.09;7285121;19;151903;-79
2022/06/26 07:41:21;;;;;;;;;;;;;;;21.68;50.36;100939.38;7283945;19;154387;-78
2022/06/26 07:43:47;;;;;;;;;;;;;;;21.70;50.12;100942.72;7288002;19;152069;-79
2022/06/26 07:46:14;;;;;;;;;;;;;;;21.68;50.34;100942.19;7283188;19;153024;-79
2022/06/26 07:48:41;;;;;;;;;;;;;;;21.66;50.16;100944.50;7280833;19;153713;-78
2022/06/26 07:51:08;;;;;;;;;;;;;;;21.66;49.83;100936.91;7283420;19;153149;-78
2022/06/26 07:53:36;;;;;;;;;;;;;;;21.67;50.30;100946.16;7284766;19;152783;-79
2022/06/26 07:56:04;;;;;;;;;;;;;;;21.67;50.25;100948.97;7282656;19;152294;-79
2022/06/26 07:58:30;;;;;;;;;;;;;;;21.65;49.82;100946.47;7285431;19;152745;-79
2022/06/26 08:00:58;;;;;;;;;;;;;;;21.64;50.27;100950.44;7282638;19;152586;-78
2022/06/26 08:03:25;;;;;;;;;;;;;;;21.71;49.46;100947.22;7287025;19;153373;-78
2022/06/26 08:05:52;;;;;;;;;;;;;;;21.69;50.10;100950.31;7282270;19;154508;-79
2022/06/26 08:08:19;;;;;;;;;;;;;;;21.66;49.88;100965.03;7283894;19;154148;-78
2022/06/26 08:10:46;;;;;;;;;;;;;;;21.70;49.54;100960.44;7284549;19;152733;-79
2022/06/26 08:13:13;;;;;;;;;;;;;;;21.74;49.15;100950.22;7282909;19;154343;-78
2022/06/26 08:15:40;;;;;;;;;;;;;;;21.70;49.92;100948.34;7279147;19;153522;-79
2022/06/26 08:18:07;;;;;;;;;;;;;;;21.71;49.00;100950.03;7281501;19;152309;-78
2022/06/26 08:20:34;;;;;;;;;;;;;;;21.67;49.13;100955.41;7282330;19;151942;-78
2022/06/26 08:23:01;;;;;;;;;;;;;;;21.72;49.23;100958.13;7283051;19;155289;-79
2022/06/26 08:25:27;;;;;;;;;;;;;;;21.72;49.00;100965.72;7288890;19;153132;-78
2022/06/26 08:27:54;;;;;;;;;;;;;;;21.70;49.45;100943.56;7283676;19;152323;-79
2022/06/26 08:30:21;;;;;;;;;;;;;;;21.67;49.00;100955.41;7281569;19;152390;-79
2022/06/26 08:32:49;;;;;;;;;;;;;;;21.68;48.84;100951.47;7281760;19;152312;-79
2022/06/26 08:35:15;;;;;;;;;;;;;;;21.71;49.15;100955.66;7278980;19;153765;-79
2022/06/26 08:37:42;;;;;;;;;;;;;;;21.65;48.85;100954.91;7280622;19;152137;-78
2022/06/26 08:40:09;;;;;;;;;;;;;;;21.65;48.52;100957.72;7287976;19;151981;-78
2022/06/26 08:42:39;;;;;;;;;;;;;;;21.64;48.71;100964.50;7282393;19;153136;-80
2022/06/26 08:45:06;;;;;;;;;;;;;;;21.63;48.92;100962.81;7283275;19;152840;-79
2022/06/26 08:47:38;;;;;;;;;;;;;;;21.65;49.15;100968.97;7286147;19;153689;-78
2022/06/26 08:50:06;;;;;;;;;;;;;;;21.66;48.62;100964.19;7282241;19;152047;-80
2022/06/26 08:52:33;;;;;;;;;;;;;;;21.71;48.24;100955.66;7282519;19;154104;-79
2022/06/26 08:55:04;;;;;;;;;;;;;;;21.61;48.54;100967.94;7280476;19;155403;-80
2022/06/26 08:57:33;;;;;;;;;;;;;;;21.58;48.29;100959.28;7282473;19;152378;-75
2022/06/26 09:00:00;;;;;;;;;;;;;;;21.59;47.71;100955.34;7280696;19;153298;-76
2022/06/26 09:02:27;;;;;;;;;;;;;;;21.58;46.64;100948.03;7278990;19;154200;-76
2022/06/26 09:04:55;;;;;;;;;;;;;;;21.55;46.85;100963.56;7280475;19;153000;-76
2022/06/26 09:07:22;;;;;;;;;;;;;;;21.55;46.49;100952.31;7280000;19;153176;-76
2022/06/26 09:09:49;;;;;;;;;;;;;;;21.51;46.58;100956.09;7288097;19;154548;-75
2022/06/26 09:12:15;;;;;;;;;;;;;;;21.50;46.36;100957.22;7281086;19;155233;-75
2022/06/26 09:14:43;;;;;;;;;;;;;;;21.48;46.14;100973.59;7275283;19;152596;-75
2022/06/26 09:17:10;;;;;;;;;;;;;;;21.51;46.25;100970.16;7280813;19;152130;-75
2022/06/26 09:19:44;;;;;;;;;;;;;;;21.53;45.57;100962.25;7251676;19;152880;-76
2022/06/26 09:22:12;;;;;;;;;;;;;;;21.51;45.51;100962.53;7256998;19;154548;-75
2022/06/26 09:24:40;;;;;;;;;;;;;;;21.55;45.60;100959.94;7281280;19;151987;-76
2022/06/26 09:27:10;;;;;;;;;;;;;;;21.53;44.76;100965.84;7279569;19;153877;-75
2022/06/26 09:29:38;;;;;;;;;;;;;;;21.54;45.31;100978.78;7276000;19;152970;-75
2022/06/26 09:32:06;;;;;;;;;;;;;;;21.53;44.98;100967.88;7287133;19;151917;-76
2022/06/26 09:34:33;;;;;;;;;;;;;;;21.52;45.41;100988.69;7278940;19;153950;-75
2022/06/26 09:37:01;;;;;;;;;;;;;;;21.47;45.45;100967.13;7281168;19;151953;-75
2022/06/26 09:39:29;;;;;;;;;;;;;;;21.47;44.79;100963.50;7282219;19;156552;-75
2022/06/26 09:41:56;;;;;;;;;;;;;;;21.53;45.22;100981.91;7281981;19;153240;-76
2022/06/26 09:44:23;;;;;;;;;;;;;;;21.53;44.68;100976.28;7281184;19;152671;-75
2022/06/26 09:46:50;;;;;;;;;;;;;;;21.56;44.49;100987.75;7275945;19;152606;-75
2022/06/26 09:49:17;;;;;;;;;;;;;;;21.56;44.27;100987.75;7276296;19;154815;-76
2022/06/26 09:51:44;;;;;;;;;;;;;;;21.60;44.31;100980.34;7287837;19;153367;-75
2022/06/26 09:54:11;;;;;;;;;;;;;;;21.59;44.62;100989.06;7272530;19;156799;-75
2022/06/26 09:56:37;;;;;;;;;;;;;;;21.61;44.62;100986.78;7281422;19;152020;-75
2022/06/26 09:59:04;;;;;;;;;;;;;;;21.59;44.32;100983.44;7279948;19;153071;-75
2022/06/26 10:07:10;;;;;;;;;;;;;;;21.55;44.00;100994.50;7278666;19;153341;-75
2022/06/26 10:09:39;;;;;;;;;;;;;;;21.52;44.53;100995.13;7278616;19;155902;-75
2022/06/26 10:12:06;;;;;;;;;;;;;;;21.59;44.37;100992.72;7281977;19;152556;-75
2022/06/26 10:14:36;;;;;;;;;;;;;;;21.60;44.26;100990.75;7286605;19;154377;-75
2022/06/26 10:17:30;;;;;;;;;;;;;;;21.56;40.71;100998.16;7279405;19;152357;-78
2022/06/26 10:20:00;;;;;;;;;;;;;;;21.60;41.57;100988.78;7276449;19;154556;-79
2022/06/26 10:22:36;;;;;;;;;;;;;;;21.61;42.28;100998.03;7280656;19;154535;-78
2022/06/26 10:25:05;;;;;;;;;;;;;;;21.60;42.62;100988.78;7227409;19;157894;-79
2022/06/26 10:27:41;;;;;;;;;;;;;;;21.65;42.73;100985.84;7265453;19;155114;-75
2022/06/26 10:30:39;;;;;;;;;;;;;;;21.74;42.65;100997.19;7277329;19;154774;-75
2022/06/26 10:33:27;;;;;;;;;;;;;;;21.87;42.47;100975.78;7274909;19;153411;-81
2022/06/26 10:36:21;;;;;;;;;;;;;;;21.91;42.22;100993.69;7274206;19;152326;-76
2022/06/26 10:39:06;;;;;;;;;;;;;;;21.95;42.29;100981.53;7283214;19;155604;-77
2022/06/26 10:44:32;;;;;;;;;;;;;;;22.11;41.55;100979.19;7275878;19;154118;-76
2022/06/26 10:46:59;;;;;;;;;;;;;;;22.11;42.00;100994.09;7275913;19;152200;-76
2022/06/26 10:49:26;;;;;;;;;;;;;;;22.08;41.91;100979.81;7275193;19;153114;-77
2022/06/26 10:51:53;;;;;;;;;;;;;;;22.06;42.29;100984.94;7273722;19;154635;-78
2022/06/26 10:54:21;;;;;;;;;;;;;;;22.04;42.74;100975.97;7278925;19;152288;-78
2022/06/26 10:56:55;;;;;;;;;;;;;;;22.05;42.60;100988.91;7276187;19;153670;-78
2022/06/26 10:59:22;;;;;;;;;;;;;;;22.03;42.65;100983.56;7274931;19;153640;-78
2022/06/26 11:01:50;;;;;;;;;;;;;;;22.03;42.46;100980.75;7280413;19;152762;-78
2022/06/26 11:04:16;;;;;;;;;;;;;;;22.08;42.50;100996.69;7270036;19;154929;-78
2022/06/26 11:06:43;;;;;;;;;;;;;;;22.03;42.22;100977.94;7274025;19;152866;-78
2022/06/26 11:09:10;;;;;;;;;;;;;;;22.03;42.30;100977.16;7274660;19;153531;-78
2022/06/26 11:11:37;;;;;;;;;;;;;;;22.00;42.47;100972.13;7276684;19;153783;-78
2022/06/26 11:14:08;;;;;;;;;;;;;;;22.01;42.33;100977.44;7278430;19;152319;-78
2022/06/26 11:16:41;;;;;;;;;;;;;;;22.00;42.52;100987.03;7276131;19;153545;-78
2022/06/26 11:19:20;;;;;;;;;;;;;;;21.97;42.38;100984.03;7270892;19;154651;-77
2022/06/26 11:21:47;;;;;;;;;;;;;;;21.92;42.44;100990.56;7276932;19;153134;-78
2022/06/26 11:24:14;;;;;;;;;;;;;;;21.88;41.77;100983.94;7281339;19;153712;-78
2022/06/26 11:26:41;;;;;;;;;;;;;;;21.87;41.89;100978.59;7274774;19;157075;-78
2022/06/26 11:29:08;;;;;;;;;;;;;;;21.89;41.67;100971.53;7270931;19;153700;-78
2022/06/26 11:31:35;;;;;;;;;;;;;;;21.91;41.72;100986.09;7272460;19;154307;-77
2022/06/26 11:34:09;;;;;;;;;;;;;;;21.93;41.96;100985.81;7277789;19;153297;-78
2022/06/26 11:36:36;;;;;;;;;;;;;;;21.93;42.45;100981.03;7285934;19;153987;-77
2022/06/26 11:39:03;;;;;;;;;;;;;;;21.96;42.10;100986.00;7293585;19;152611;-77
2022/06/26 11:41:30;;;;;;;;;;;;;;;21.96;42.11;100979.53;7301147;19;151863;-77
2022/06/26 11:43:57;;;;;;;;;;;;;;;21.96;42.44;100983.19;7305988;19;152787;-77
2022/06/26 11:46:23;;;;;;;;;;;;;;;21.94;42.56;100991.09;7312435;19;156463;-78
2022/06/26 11:48:51;;;;;;;;;;;;;;;21.95;42.29;100980.69;7304864;19;151791;-77
2022/06/26 11:51:20;;;;;;;;;;;;;;;21.95;42.20;100970.28;7303754;19;152085;-77
2022/06/26 11:53:49;;;;;;;;;;;;;;;21.93;42.20;100980.19;7307206;19;152166;-77
2022/06/26 11:56:24;;;;;;;;;;;;;;;21.93;42.33;100968.94;7304787;19;152363;-77
2022/06/26 11:58:52;;;;;;;;;;;;;;;21.89;42.60;100970.69;7302477;19;152329;-77
2022/06/26 12:01:19;;;;;;;;;;;;;;;21.89;42.29;100967.88;7303205;19;152018;-78
2022/06/26 12:03:46;;;;;;;;;;;;;;;21.87;42.45;100967.34;7305360;19;153827;-78
2022/06/26 12:06:25;;;;;;;;;;;;;;;21.86;42.56;100974.13;7306074;19;153352;-77
2022/06/26 12:08:51;;;;;;;;;;;;;;;21.88;42.47;100974.66;7304967;19;153087;-77
2022/06/26 12:11:18;;;;;;;;;;;;;;;21.87;42.05;100968.19;7304852;19;155772;-78
2022/06/26 12:13:45;;;;;;;;;;;;;;;21.87;42.01;100982.25;7304573;19;152014;-78
2022/06/26 12:16:11;;;;;;;;;;;;;;;21.87;42.28;100972.97;7303345;19;152030;-78
2022/06/26 12:18:40;;;;;;;;;;;;;;;21.87;42.37;100971.00;7303401;19;154226;-77
2022/06/26 12:21:17;;;;;;;;;;;;;;;21.92;42.41;100984.13;7303278;19;151621;-77
2022/06/26 12:23:45;;;;;;;;;;;;;;;21.92;42.31;100973.69;7307634;19;151339;-77
2022/06/26 12:26:24;;;;;;;;;;;;;;;21.93;42.36;100966.97;7305602;19;152333;-77
2022/06/26 12:29:00;;;;;;;;;;;;;;;21.91;42.59;100977.66;7313617;19;151875;-77
2022/06/26 12:31:27;;;;;;;;;;;;;;;21.90;42.62;100969.53;7299243;19;154273;-77
2022/06/26 12:33:53;;;;;;;;;;;;;;;21.88;42.27;100991.53;7303324;19;153062;-78
2022/06/26 12:36:20;;;;;;;;;;;;;;;21.87;42.01;100981.41;7303928;19;153016;-78
2022/06/26 12:38:47;;;;;;;;;;;;;;;21.85;41.96;100984.53;7302624;19;153849;-78
2022/06/26 12:41:16;;;;;;;;;;;;;;;21.87;42.20;100990.69;7303553;19;151865;-78
2022/06/26 12:43:48;;;;;;;;;;;;;;;21.88;41.90;100985.91;7304607;19;152639;-77
2022/06/26 12:46:23;;;;;;;;;;;;;;;21.87;42.04;100993.50;7302519;19;154026;-77
2022/06/26 12:48:50;;;;;;;;;;;;;;;21.86;42.31;100997.47;7298566;19;151583;-78